Time;durP1;ratioP1;P1;durP2;ratioP2;P2;SDS_P1;SDS_P2;PMS_P1;PMS_P2;Temp;Humidity;BMP_temperature;BMP_pressure;BME280_temperature;BME280_humidity;BME280_pressure;Samples;Min_cycle;Max_cycle;Signal;HPM_P1;HPM_P2
2023/03/06 00:00:25;;;;;;;28.20;19.17;;;7.00;99.90;;;;;;5060861;28;20220;-34
2023/03/06 00:02:57;;;;;;;29.03;20.33;;;7.00;99.90;;;;;;5044697;28;20666;-34
2023/03/06 00:05:25;;;;;;;27.87;19.80;;;7.00;99.90;;;;;;5047271;28;20592;-34
2023/03/06 00:07:55;;;;;;;25.50;19.37;;;7.00;99.90;;;;;;5057470;28;20617;-34
2023/03/06 00:10:28;;;;;;;28.13;20.43;;;7.00;99.90;;;;;;5052268;28;20269;-34
2023/03/06 00:12:57;;;;;;;29.63;20.70;;;7.00;99.90;;;;;;5051913;28;20191;-34
2023/03/06 00:15:27;;;;;;;29.03;20.63;;;7.00;99.90;;;;;;5052108;28;20196;-34
2023/03/06 00:17:56;;;;;;;30.60;19.40;;;7.00;99.90;;;;;;5046797;28;20726;-34
2023/03/06 00:20:24;;;;;;;24.77;18.50;;;7.00;99.90;;;;;;5045257;28;20243;-34
2023/03/06 00:22:52;;;;;;;26.63;20.33;;;7.00;99.90;;;;;;5046677;28;20212;-35
2023/03/06 00:25:22;;;;;;;29.47;20.77;;;7.00;99.90;;;;;;5045264;28;20220;-34
2023/03/06 00:27:54;;;;;;;28.30;20.73;;;7.00;99.90;;;;;;5028718;28;20236;-34
2023/03/06 00:30:23;;;;;;;30.07;21.63;;;7.00;99.90;;;;;;5045106;28;20680;-34
2023/03/06 00:32:51;;;;;;;28.90;21.77;;;7.00;99.90;;;;;;5045024;28;20319;-34
2023/03/06 00:35:23;;;;;;;27.83;21.43;;;6.90;99.90;;;;;;5045496;28;20246;-35
2023/03/06 00:37:51;;;;;;;29.27;21.03;;;6.90;99.90;;;;;;5046469;28;20225;-34
2023/03/06 00:40:20;;;;;;;30.17;21.57;;;6.90;99.90;;;;;;5036065;28;20209;-32
2023/03/06 00:42:51;;;;;;;31.07;22.37;;;6.90;99.90;;;;;;5042850;28;20238;-32
2023/03/06 00:45:19;;;;;;;31.27;22.60;;;6.90;99.90;;;;;;5039080;28;20549;-32
2023/03/06 00:47:46;;;;;;;28.27;20.97;;;6.90;99.90;;;;;;5044026;28;20425;-31
2023/03/06 00:50:13;;;;;;;32.27;22.63;;;6.90;99.90;;;;;;5034365;28;21002;-32
2023/03/06 00:52:40;;;;;;;30.53;22.03;;;6.90;99.90;;;;;;5041860;28;20209;-34
2023/03/06 00:55:11;;;;;;;33.23;22.03;;;6.90;99.90;;;;;;5051036;28;20671;-34
2023/03/06 00:57:43;;;;;;;32.17;22.93;;;6.90;99.90;;;;;;5030156;28;20607;-34
2023/03/06 01:00:12;;;;;;;29.43;22.40;;;6.90;99.90;;;;;;5031246;28;20200;-34
2023/03/06 01:02:39;;;;;;;31.47;21.93;;;6.90;99.90;;;;;;5039474;28;20295;-34
2023/03/06 01:05:07;;;;;;;27.60;20.30;;;6.90;99.90;;;;;;5045459;28;20247;-34
2023/03/06 01:07:35;;;;;;;30.87;22.17;;;6.90;99.90;;;;;;5038017;28;20584;-34
2023/03/06 01:10:04;;;;;;;31.07;22.83;;;6.80;99.90;;;;;;5043078;28;20250;-34
2023/03/06 01:12:31;;;;;;;30.53;22.07;;;6.80;99.90;;;;;;5052061;28;20200;-35
2023/03/06 01:14:59;;;;;;;30.40;21.47;;;6.80;99.90;;;;;;5032898;28;20218;-34
2023/03/06 01:17:28;;;;;;;27.73;21.03;;;6.80;99.90;;;;;;5040293;28;20204;-33
2023/03/06 01:19:58;;;;;;;31.47;22.47;;;6.80;99.90;;;;;;5056794;28;20208;-32
2023/03/06 01:22:25;;;;;;;34.07;22.97;;;6.80;99.90;;;;;;5037719;28;20224;-32
2023/03/06 01:24:52;;;;;;;33.17;22.87;;;6.80;99.90;;;;;;5059296;28;20661;-32
2023/03/06 01:27:22;;;;;;;31.00;22.03;;;6.80;99.90;;;;;;5035690;28;20241;-33
2023/03/06 01:29:51;;;;;;;31.83;22.17;;;6.80;99.90;;;;;;5027583;28;20235;-33
2023/03/06 01:32:23;;;;;;;32.13;22.90;;;6.80;99.90;;;;;;5043219;28;20212;-33
2023/03/06 01:34:50;;;;;;;33.40;22.17;;;6.80;99.90;;;;;;5041705;28;20261;-33
2023/03/06 01:37:18;;;;;;;28.97;21.77;;;6.80;99.90;;;;;;5043513;28;20711;-32
2023/03/06 01:39:45;;;;;;;33.80;21.43;;;6.80;99.90;;;;;;5041206;28;20218;-33
2023/03/06 01:42:17;;;;;;;31.30;23.43;;;6.80;99.90;;;;;;5043082;28;20211;-33
2023/03/06 01:45:06;;;;;;;30.63;22.00;;;6.80;99.90;;;;;;5059686;28;20303;-33
2023/03/06 01:47:35;;;;;;;30.20;22.73;;;6.80;99.90;;;;;;5044759;28;20275;-33
2023/03/06 01:50:09;;;;;;;31.53;22.43;;;6.80;99.90;;;;;;5042458;28;20287;-33
2023/03/06 01:52:49;;;;;;;30.43;22.50;;;6.70;99.90;;;;;;5043813;28;20318;-33
2023/03/06 01:55:20;;;;;;;29.43;22.10;;;6.70;99.90;;;;;;5044794;28;20320;-33
2023/03/06 01:57:54;;;;;;;31.57;21.87;;;6.70;99.90;;;;;;5049216;28;20201;-33
2023/03/06 02:00:26;;;;;;;32.17;23.07;;;6.70;99.90;;;;;;5039628;28;20313;-34
2023/03/06 02:02:57;;;;;;;31.53;22.47;;;6.70;99.90;;;;;;5041915;28;20226;-33
2023/03/06 02:05:27;;;;;;;31.80;22.70;;;6.70;99.90;;;;;;5042692;28;20214;-33
2023/03/06 02:07:54;;;;;;;31.50;22.33;;;6.70;99.90;;;;;;5043033;28;20244;-33
2023/03/06 02:10:22;;;;;;;28.77;21.77;;;6.70;99.90;;;;;;5032850;28;20198;-33
2023/03/06 02:12:56;;;;;;;34.63;23.73;;;6.70;99.90;;;;;;5044787;28;20689;-33
2023/03/06 02:15:29;;;;;;;33.43;23.47;;;6.70;99.90;;;;;;5054116;28;20200;-33
2023/03/06 02:18:01;;;;;;;30.57;22.60;;;6.70;99.90;;;;;;5045015;28;20247;-33
2023/03/06 02:21:02;;;;;;;31.10;22.50;;;6.70;99.90;;;;;;5032017;28;20224;-33
2023/03/06 02:24:06;;;;;;;33.73;23.23;;;6.70;99.90;;;;;;5011360;28;20212;-32
2023/03/06 02:26:36;;;;;;;35.67;22.93;;;6.70;99.90;;;;;;5060038;28;20238;-32
2023/03/06 02:29:07;;;;;;;32.13;23.50;;;6.70;99.90;;;;;;5060080;28;20226;-32
2023/03/06 02:31:39;;;;;;;34.40;23.30;;;6.60;99.90;;;;;;5042298;28;20242;-35
2023/03/06 02:34:27;;;;;;;32.83;22.57;;;6.70;99.90;;;;;;5043577;28;20196;-32
2023/03/06 02:37:01;;;;;;;33.33;23.83;;;6.70;99.90;;;;;;5043449;28;20299;-34
2023/03/06 02:39:34;;;;;;;33.30;24.00;;;6.70;99.90;;;;;;5043214;28;20327;-34
2023/03/06 02:42:01;;;;;;;33.03;22.70;;;6.70;99.90;;;;;;5043532;28;20243;-33
2023/03/06 02:44:29;;;;;;;30.63;22.43;;;6.70;99.90;;;;;;5042728;28;20206;-34
2023/03/06 02:46:56;;;;;;;33.37;23.00;;;6.60;99.90;;;;;;5034381;28;20209;-34
2023/03/06 02:49:23;;;;;;;33.77;23.50;;;6.60;99.90;;;;;;5025270;28;20208;-34
2023/03/06 02:51:59;;;;;;;31.00;22.20;;;6.60;99.90;;;;;;5055050;28;20204;-34
2023/03/06 02:54:26;;;;;;;30.07;22.33;;;6.60;99.90;;;;;;5027368;28;20258;-33
2023/03/06 02:56:56;;;;;;;30.33;22.83;;;6.70;99.90;;;;;;5048488;28;20216;-33
2023/03/06 02:59:26;;;;;;;32.43;22.93;;;6.70;99.90;;;;;;5038828;28;20797;-33
2023/03/06 03:01:53;;;;;;;33.10;23.27;;;6.70;99.90;;;;;;5046541;28;20299;-33
2023/03/06 03:04:25;;;;;;;33.20;22.73;;;6.60;99.90;;;;;;5048114;28;20277;-34
2023/03/06 03:06:57;;;;;;;33.73;23.47;;;6.60;99.90;;;;;;5038955;28;20217;-34
2023/03/06 03:09:27;;;;;;;34.70;23.90;;;6.60;99.90;;;;;;5043756;28;20512;-33
2023/03/06 03:11:54;;;;;;;32.47;22.87;;;6.60;99.90;;;;;;5047043;28;20251;-34
2023/03/06 03:14:24;;;;;;;33.63;22.83;;;6.60;99.90;;;;;;5053479;28;20208;-33
2023/03/06 03:16:54;;;;;;;33.63;23.77;;;6.60;99.90;;;;;;5038645;28;20200;-33
2023/03/06 03:19:25;;;;;;;36.47;22.20;;;6.60;99.90;;;;;;5048545;28;20208;-33
2023/03/06 03:21:52;;;;;;;33.57;22.63;;;6.60;99.90;;;;;;5040407;28;20321;-33
2023/03/06 03:24:20;;;;;;;31.50;22.40;;;6.50;99.90;;;;;;5027550;28;20300;-33
2023/03/06 03:26:49;;;;;;;34.30;23.83;;;6.50;99.90;;;;;;5042790;28;20208;-34
2023/03/06 03:29:17;;;;;;;34.67;23.80;;;6.50;99.90;;;;;;5035049;28;20316;-34
2023/03/06 03:31:46;;;;;;;33.87;22.07;;;6.50;99.90;;;;;;5039188;28;20224;-33
2023/03/06 03:34:14;;;;;;;33.13;24.03;;;6.50;99.90;;;;;;5047417;28;20247;-34
2023/03/06 03:36:44;;;;;;;34.00;23.57;;;6.50;99.90;;;;;;5061835;28;20200;-34
2023/03/06 03:39:11;;;;;;;37.73;23.60;;;6.50;99.90;;;;;;5045934;28;20200;-33
2023/03/06 03:41:39;;;;;;;32.93;22.43;;;6.50;99.90;;;;;;5033095;28;20220;-33
2023/03/06 03:44:11;;;;;;;34.30;24.37;;;6.50;99.90;;;;;;5032267;28;20679;-34
2023/03/06 03:46:38;;;;;;;34.27;22.77;;;6.50;99.90;;;;;;5036253;28;20208;-34
2023/03/06 03:49:08;;;;;;;32.80;23.27;;;6.50;99.90;;;;;;5046841;28;20236;-33
2023/03/06 03:51:37;;;;;;;36.73;25.33;;;6.50;99.90;;;;;;5057311;28;20201;-33
2023/03/06 03:54:09;;;;;;;34.87;23.80;;;6.40;99.90;;;;;;5027347;28;20313;-34
2023/03/06 03:56:41;;;;;;;36.23;24.50;;;6.50;99.90;;;;;;5042462;28;20215;-34
2023/03/06 03:59:11;;;;;;;35.23;23.70;;;6.50;99.90;;;;;;5044299;28;20212;-34
2023/03/06 04:01:40;;;;;;;33.77;22.23;;;6.50;99.90;;;;;;5035318;28;20520;-34
2023/03/06 04:04:12;;;;;;;36.87;24.20;;;6.50;99.90;;;;;;5039452;28;20197;-33
2023/03/06 04:06:39;;;;;;;36.03;25.60;;;6.50;99.90;;;;;;5045901;28;20221;-34
2023/03/06 04:09:06;;;;;;;37.27;24.87;;;6.50;99.90;;;;;;5045710;28;20252;-34
2023/03/06 04:11:34;;;;;;;36.90;25.10;;;6.50;99.90;;;;;;5025191;28;20664;-34
2023/03/06 04:14:02;;;;;;;37.87;24.97;;;6.50;99.90;;;;;;5038392;28;20201;-33
2023/03/06 04:16:29;;;;;;;37.73;25.17;;;6.50;99.90;;;;;;5041344;28;20205;-34
2023/03/06 04:18:59;;;;;;;36.80;24.53;;;6.50;99.90;;;;;;5055572;28;20200;-33
2023/03/06 04:21:28;;;;;;;37.00;25.03;;;6.50;99.90;;;;;;5054089;28;20566;-34
2023/03/06 04:23:57;;;;;;;39.17;25.27;;;6.50;99.90;;;;;;5045400;28;20579;-33
2023/03/06 04:26:26;;;;;;;36.80;25.27;;;6.50;99.90;;;;;;5045648;28;20527;-34
2023/03/06 04:28:57;;;;;;;36.07;24.87;;;6.40;99.90;;;;;;5047111;28;20252;-34
2023/03/06 04:31:24;;;;;;;42.30;25.17;;;6.40;99.90;;;;;;5047197;28;20676;-34
2023/03/06 04:33:56;;;;;;;37.87;25.03;;;6.40;99.90;;;;;;5045656;28;20262;-33
2023/03/06 04:36:31;;;;;;;37.63;25.70;;;6.40;99.90;;;;;;5045614;28;20291;-34
2023/03/06 04:39:04;;;;;;;37.57;25.77;;;6.40;99.90;;;;;;5046556;28;20687;-33
2023/03/06 04:41:31;;;;;;;41.50;26.83;;;6.40;99.90;;;;;;5047269;28;20247;-33
2023/03/06 04:43:59;;;;;;;37.87;24.93;;;6.40;99.90;;;;;;5046890;28;20384;-34
2023/03/06 04:46:28;;;;;;;34.97;24.40;;;6.40;99.90;;;;;;5045017;28;20199;-33
2023/03/06 04:48:57;;;;;;;35.23;25.60;;;6.40;99.90;;;;;;5044532;28;20248;-34
2023/03/06 04:51:27;;;;;;;37.03;26.07;;;6.40;99.90;;;;;;5060720;28;20204;-34
2023/03/06 04:53:54;;;;;;;40.77;27.27;;;6.40;99.90;;;;;;5028542;28;20233;-34
2023/03/06 04:56:23;;;;;;;40.80;26.93;;;6.30;99.90;;;;;;5046320;28;20219;-34
2023/03/06 04:58:53;;;;;;;38.97;26.77;;;6.30;99.90;;;;;;5055991;28;20231;-34
2023/03/06 05:01:20;;;;;;;38.40;26.87;;;6.20;99.90;;;;;;5056363;28;20597;-34
2023/03/06 05:03:48;;;;;;;38.97;26.37;;;6.20;99.90;;;;;;5035254;28;20216;-34
2023/03/06 05:06:20;;;;;;;40.83;26.53;;;6.20;99.90;;;;;;5043878;28;20633;-34
2023/03/06 05:08:47;;;;;;;40.40;26.00;;;6.20;99.90;;;;;;5044728;28;20236;-32
2023/03/06 05:11:16;;;;;;;41.80;25.07;;;6.10;99.90;;;;;;5054825;28;20308;-32
2023/03/06 05:13:43;;;;;;;42.57;26.57;;;6.10;99.90;;;;;;5034505;28;20201;-32
2023/03/06 05:16:13;;;;;;;40.07;27.07;;;6.10;99.90;;;;;;5044312;28;20192;-33
2023/03/06 05:18:42;;;;;;;44.40;27.73;;;6.00;99.90;;;;;;5027016;28;20295;-33
2023/03/06 05:21:14;;;;;;;41.10;26.33;;;6.00;99.90;;;;;;5036908;28;20223;-32
2023/03/06 05:23:41;;;;;;;44.13;27.77;;;6.00;99.90;;;;;;5043503;28;20432;-32
2023/03/06 05:26:11;;;;;;;39.03;26.90;;;6.00;99.90;;;;;;5037604;28;20702;-33
2023/03/06 05:28:39;;;;;;;38.73;27.80;;;6.00;99.90;;;;;;5035710;28;20220;-33
2023/03/06 05:31:07;;;;;;;39.00;26.27;;;6.00;99.90;;;;;;5052842;28;20291;-32
2023/03/06 05:33:37;;;;;;;39.97;26.70;;;6.00;99.90;;;;;;5044270;28;20829;-33
2023/03/06 05:36:09;;;;;;;41.57;26.47;;;6.00;99.90;;;;;;5040993;28;20363;-32
2023/03/06 05:38:38;;;;;;;43.13;27.30;;;6.00;99.90;;;;;;5038073;28;20212;-32
2023/03/06 05:41:05;;;;;;;44.23;27.00;;;6.00;99.90;;;;;;5043921;28;20215;-32
2023/03/06 05:43:32;;;;;;;39.57;26.00;;;6.00;99.90;;;;;;5036234;28;20239;-32
2023/03/06 05:46:04;;;;;;;39.87;25.87;;;6.00;99.90;;;;;;5025722;28;20220;-33
2023/03/06 05:48:33;;;;;;;38.87;25.73;;;6.00;99.90;;;;;;5034961;28;20220;-33
2023/03/06 05:51:01;;;;;;;41.83;27.13;;;6.00;99.90;;;;;;5025541;28;20646;-33
2023/03/06 05:53:32;;;;;;;43.30;27.80;;;6.00;99.90;;;;;;5050206;28;20247;-33
2023/03/06 05:56:04;;;;;;;40.10;26.17;;;6.00;99.90;;;;;;5039639;28;20209;-33
2023/03/06 05:58:33;;;;;;;39.10;24.87;;;6.00;99.90;;;;;;5042524;28;20216;-33
2023/03/06 06:01:08;;;;;;;40.93;25.37;;;6.00;99.90;;;;;;5038577;28;20235;-33
2023/03/06 06:03:37;;;;;;;38.40;26.10;;;6.00;99.90;;;;;;5041579;28;20265;-33
2023/03/06 06:06:09;;;;;;;41.00;26.33;;;6.00;99.90;;;;;;5029271;28;20204;-33
2023/03/06 06:08:41;;;;;;;38.67;25.57;;;6.00;99.90;;;;;;5042039;28;20231;-33
2023/03/06 06:11:12;;;;;;;39.53;26.00;;;6.00;99.90;;;;;;5041003;28;20206;-33
2023/03/06 06:13:41;;;;;;;38.13;25.37;;;6.00;99.90;;;;;;5027461;28;20677;-33
2023/03/06 06:16:15;;;;;;;41.93;27.23;;;6.00;99.90;;;;;;5043531;28;20231;-33
2023/03/06 06:18:45;;;;;;;37.90;25.57;;;6.00;99.90;;;;;;5051479;28;20196;-33
2023/03/06 06:21:13;;;;;;;40.33;26.13;;;6.00;99.90;;;;;;5045011;28;20326;-33
2023/03/06 06:23:41;;;;;;;44.87;26.20;;;6.00;99.90;;;;;;5044142;28;20257;-33
2023/03/06 06:26:08;;;;;;;40.50;27.27;;;6.00;99.90;;;;;;5042813;28;20219;-33
2023/03/06 06:28:36;;;;;;;37.47;24.83;;;6.00;99.90;;;;;;5043522;28;20228;-33
2023/03/06 06:31:12;;;;;;;41.30;25.23;;;6.00;99.90;;;;;;5048686;28;20242;-33
2023/03/06 06:33:40;;;;;;;39.97;26.57;;;6.00;99.90;;;;;;5044600;28;20215;-33
2023/03/06 06:36:17;;;;;;;43.73;25.63;;;6.00;99.90;;;;;;5040349;28;20197;-33
2023/03/06 06:38:50;;;;;;;41.37;25.13;;;6.00;99.90;;;;;;5022676;28;20211;-33
2023/03/06 06:41:18;;;;;;;43.10;25.80;;;6.00;99.90;;;;;;5036118;28;20200;-33
2023/03/06 06:44:07;;;;;;;40.47;25.63;;;5.90;99.90;;;;;;5027289;28;20197;-33
2023/03/06 06:46:37;;;;;;;43.47;26.17;;;5.90;99.90;;;;;;5036897;28;20208;-33
2023/03/06 06:49:26;;;;;;;36.40;24.13;;;5.90;99.90;;;;;;5028137;28;20219;-33
2023/03/06 06:51:56;;;;;;;39.13;24.17;;;5.90;99.90;;;;;;5024781;28;20434;-33
2023/03/06 06:54:23;;;;;;;41.20;26.73;;;5.90;99.90;;;;;;5031069;28;20253;-33
2023/03/06 06:56:51;;;;;;;38.17;24.53;;;5.90;99.90;;;;;;5043009;28;20224;-33
2023/03/06 06:59:22;;;;;;;39.47;25.23;;;5.90;99.90;;;;;;5033319;28;20226;-33
2023/03/06 07:01:52;;;;;;;40.07;26.73;;;5.90;99.90;;;;;;5054371;28;20212;-33
2023/03/06 07:04:20;;;;;;;39.87;25.97;;;5.90;99.90;;;;;;5056681;28;20196;-33
2023/03/06 07:06:47;;;;;;;39.70;25.50;;;5.90;99.90;;;;;;5044346;28;20208;-33
2023/03/06 07:09:19;;;;;;;42.00;24.70;;;5.90;99.90;;;;;;5043984;28;20259;-33
2023/03/06 07:11:46;;;;;;;42.33;25.60;;;5.90;99.90;;;;;;5045671;28;20223;-33
2023/03/06 07:14:13;;;;;;;38.03;24.87;;;5.90;99.90;;;;;;5043100;28;20707;-33
2023/03/06 07:16:40;;;;;;;43.30;26.33;;;5.90;99.90;;;;;;5057655;28;20330;-33
2023/03/06 07:19:08;;;;;;;38.23;25.23;;;5.90;99.90;;;;;;5043039;28;20196;-33
2023/03/06 07:21:35;;;;;;;42.03;25.10;;;5.90;99.90;;;;;;5057687;28;20303;-33
2023/03/06 07:24:05;;;;;;;37.50;24.77;;;6.00;99.90;;;;;;5031628;28;20654;-33
2023/03/06 07:26:39;;;;;;;41.47;25.00;;;6.00;99.90;;;;;;5051293;28;20378;-33
2023/03/06 07:29:06;;;;;;;39.73;25.50;;;6.00;99.90;;;;;;5050451;28;20306;-33
2023/03/06 07:31:35;;;;;;;46.13;26.20;;;6.00;99.90;;;;;;5051976;28;20212;-33
2023/03/06 07:34:05;;;;;;;54.27;27.83;;;6.10;99.90;;;;;;5043747;28;20266;-33
2023/03/06 07:36:33;;;;;;;42.70;25.57;;;6.10;99.90;;;;;;5024432;28;20707;-33
2023/03/06 07:39:00;;;;;;;40.63;25.93;;;6.20;99.90;;;;;;5043821;28;20258;-33
2023/03/06 07:41:30;;;;;;;44.27;25.60;;;6.20;99.90;;;;;;5045391;28;20710;-33
2023/03/06 07:43:57;;;;;;;39.77;26.33;;;6.20;99.90;;;;;;5035429;28;20203;-33
2023/03/06 07:46:26;;;;;;;47.27;27.70;;;6.30;99.90;;;;;;5045173;28;20227;-33
2023/03/06 07:48:57;;;;;;;56.27;29.00;;;6.30;99.90;;;;;;5045892;28;20315;-33
2023/03/06 07:51:24;;;;;;;60.37;29.37;;;6.40;99.90;;;;;;5048496;28;20192;-33
2023/03/06 07:53:54;;;;;;;52.77;28.60;;;6.40;99.90;;;;;;5047606;28;20234;-33
2023/03/06 07:56:24;;;;;;;52.40;27.90;;;6.40;99.90;;;;;;5048354;28;20200;-33
2023/03/06 07:58:51;;;;;;;64.97;29.10;;;6.40;99.90;;;;;;5067166;28;20202;-33
2023/03/06 08:01:22;;;;;;;47.57;27.03;;;6.50;99.90;;;;;;5058364;28;20709;-34
2023/03/06 08:03:52;;;;;;;46.53;27.90;;;6.50;99.90;;;;;;5045464;28;20196;-33
2023/03/06 08:06:22;;;;;;;45.33;28.10;;;6.50;99.90;;;;;;5044437;28;20291;-33
2023/03/06 08:08:53;;;;;;;46.07;27.53;;;6.50;99.90;;;;;;5051760;28;20212;-33
2023/03/06 08:11:28;;;;;;;45.57;27.83;;;6.50;99.90;;;;;;5043784;28;20212;-33
2023/03/06 08:13:57;;;;;;;44.57;26.97;;;6.60;99.90;;;;;;5046895;28;21008;-33
2023/03/06 08:16:29;;;;;;;44.87;27.97;;;6.60;99.90;;;;;;5050713;28;20322;-34
2023/03/06 08:18:57;;;;;;;40.73;25.90;;;6.60;99.90;;;;;;5063953;28;20273;-33
2023/03/06 08:21:29;;;;;;;52.03;28.27;;;6.70;99.90;;;;;;5049443;28;20235;-33
2023/03/06 08:24:04;;;;;;;42.27;27.83;;;6.70;99.90;;;;;;5046352;28;20249;-33
2023/03/06 08:26:35;;;;;;;51.83;29.03;;;6.80;99.90;;;;;;5045191;28;20220;-33
2023/03/06 08:29:07;;;;;;;48.53;27.47;;;6.80;99.90;;;;;;5046883;28;20331;-33
2023/03/06 08:31:37;;;;;;;49.83;28.30;;;6.80;99.90;;;;;;5059747;28;20204;-33
2023/03/06 08:34:08;;;;;;;54.83;28.10;;;6.90;99.90;;;;;;5046426;28;20200;-33
2023/03/06 08:36:39;;;;;;;43.33;27.23;;;6.90;99.90;;;;;;5054370;28;20212;-33
2023/03/06 08:39:07;;;;;;;49.27;28.57;;;7.00;99.90;;;;;;5056256;28;20208;-33
2023/03/06 08:41:35;;;;;;;56.60;28.27;;;7.00;99.90;;;;;;5046152;28;20569;-33
2023/03/06 08:44:07;;;;;;;43.40;27.33;;;7.10;99.90;;;;;;5044742;28;20647;-33
2023/03/06 08:46:35;;;;;;;53.53;29.83;;;7.10;99.90;;;;;;5025622;28;20220;-33
2023/03/06 08:49:02;;;;;;;41.65;30.58;;;7.20;99.90;;;;;;5007190;28;20518;-33
2023/03/06 08:51:32;;;;;;;41.93;28.77;;;7.40;99.90;;;;;;5050321;28;20204;-33
2023/03/06 08:54:05;;;;;;;42.47;27.87;;;7.40;99.90;;;;;;5059652;28;20517;-33
2023/03/06 08:56:33;;;;;;;42.63;28.03;;;7.50;99.90;;;;;;5055353;28;20254;-33
2023/03/06 08:59:04;;;;;;;45.20;27.50;;;7.50;99.90;;;;;;5044917;28;20235;-33
2023/03/06 09:01:39;;;;;;;49.07;27.57;;;7.60;99.90;;;;;;5041691;28;20659;-33
2023/03/06 09:04:09;;;;;;;46.70;27.53;;;7.60;99.90;;;;;;5035593;28;20215;-33
2023/03/06 09:06:46;;;;;;;40.73;27.90;;;7.60;99.90;;;;;;5058543;28;20756;-33
2023/03/06 09:09:13;;;;;;;41.53;28.20;;;7.70;99.90;;;;;;5043796;28;20616;-33
2023/03/06 09:11:44;;;;;;;42.60;26.63;;;7.70;99.90;;;;;;5043869;28;20191;-33
2023/03/06 09:14:12;;;;;;;38.33;25.63;;;7.80;99.90;;;;;;5036614;28;20270;-33
2023/03/06 09:16:39;;;;;;;37.67;25.30;;;7.80;99.90;;;;;;5039419;28;20193;-33
2023/03/06 09:19:09;;;;;;;44.73;25.53;;;7.80;99.90;;;;;;5038891;28;20223;-33
2023/03/06 09:21:39;;;;;;;40.47;26.97;;;7.90;99.90;;;;;;5046049;28;20212;-33
2023/03/06 09:24:12;;;;;;;39.50;26.30;;;8.00;99.90;;;;;;5045641;28;20208;-33
2023/03/06 09:26:40;;;;;;;38.97;26.17;;;8.10;99.90;;;;;;5046782;28;20671;-33
2023/03/06 09:29:16;;;;;;;46.87;26.97;;;8.10;99.90;;;;;;5044520;28;20605;-33
2023/03/06 09:31:44;;;;;;;42.17;26.27;;;8.10;99.90;;;;;;5047706;28;20211;-32
2023/03/06 09:34:12;;;;;;;40.53;25.43;;;8.20;99.90;;;;;;5045831;28;20208;-32
2023/03/06 09:36:42;;;;;;;32.73;23.73;;;8.20;99.90;;;;;;5051585;28;20204;-32
2023/03/06 09:39:27;;;;;;;37.77;26.03;;;8.30;99.90;;;;;;5044988;28;20311;-32
2023/03/06 09:41:57;;;;;;;38.33;24.73;;;8.30;99.90;;;;;;5060133;28;20661;-33
2023/03/06 09:44:27;;;;;;;31.43;21.60;;;8.30;99.90;;;;;;5062005;28;20208;-33
2023/03/06 09:47:16;;;;;;;33.67;21.63;;;8.40;99.90;;;;;;5042526;28;20204;-33
2023/03/06 09:49:52;;;;;;;34.60;22.43;;;8.40;99.90;;;;;;5024842;28;20255;-33
2023/03/06 09:52:44;;;;;;;35.13;22.37;;;8.40;99.90;;;;;;5038380;28;20488;-32
2023/03/06 09:55:27;;;;;;;31.53;22.70;;;8.50;99.90;;;;;;5041872;28;20304;-32
2023/03/06 09:58:01;;;;;;;30.97;22.50;;;8.60;99.90;;;;;;5044482;28;20218;-32
2023/03/06 10:01:00;;;;;;;36.90;22.30;;;8.60;99.90;;;;;;5042482;28;20204;-33
2023/03/06 10:03:56;;;;;;;45.43;22.70;;;8.60;99.90;;;;;;5036429;28;20819;-33
2023/03/06 10:06:40;;;;;;;38.90;23.57;;;8.70;99.90;;;;;;5018768;28;20695;-33
2023/03/06 10:09:37;;;;;;;33.57;22.20;;;8.70;99.90;;;;;;5025200;28;20248;-33
2023/03/06 10:12:39;;;;;;;35.63;23.23;;;8.80;99.90;;;;;;5039902;28;20223;-33
2023/03/06 10:15:24;;;;;;;45.33;24.30;;;8.90;99.90;;;;;;5024190;28;20240;-32
2023/03/06 10:17:54;;;;;;;37.87;23.17;;;8.90;99.90;;;;;;5044694;28;20315;-35
2023/03/06 10:20:35;;;;;;;52.77;24.67;;;8.90;99.90;;;;;;5059841;28;20244;-34
2023/03/06 10:23:46;;;;;;;34.50;23.57;;;8.90;99.90;;;;;;5044304;28;20232;-34
2023/03/06 10:26:21;;;;;;;35.50;23.10;;;8.90;99.90;;;;;;5009151;28;20706;-34
2023/03/06 10:29:12;;;;;;;52.23;25.10;;;8.90;99.90;;;;;;5043289;28;20475;-34
2023/03/06 10:31:48;;;;;;;37.07;23.10;;;8.90;99.90;;;;;;5045846;28;20227;-34
2023/03/06 10:34:34;;;;;;;43.90;23.90;;;8.90;99.90;;;;;;5044078;28;20307;-34
2023/03/06 10:37:32;;;;;;;38.00;22.77;;;9.00;99.90;;;;;;5046016;28;20504;-34
2023/03/06 10:40:05;;;;;;;34.13;23.07;;;9.00;99.90;;;;;;5032528;28;20231;-34
2023/03/06 10:42:36;;;;;;;32.80;22.37;;;9.00;99.90;;;;;;5032654;28;20211;-33
2023/03/06 10:45:11;;;;;;;46.87;24.50;;;9.10;99.90;;;;;;5048409;28;20747;-32
2023/03/06 10:47:41;;;;;;;35.27;22.83;;;9.20;99.90;;;;;;5040037;28;20734;-32
2023/03/06 10:50:26;;;;;;;39.83;22.33;;;9.20;99.90;;;;;;5040631;28;20281;-33
2023/03/06 10:53:03;;;;;;;35.10;23.37;;;9.20;99.90;;;;;;5052550;28;20246;-33
2023/03/06 10:55:35;;;;;;;35.97;26.87;;;9.20;99.90;;;;;;5050279;28;20415;-33
2023/03/06 10:58:18;;;;;;;39.80;24.10;;;9.50;99.90;;;;;;5052682;28;20287;-33
2023/03/06 11:00:45;;;;;;;42.37;24.47;;;9.50;99.90;;;;;;5047050;28;20255;-32
2023/03/06 11:03:19;;;;;;;28.93;20.50;;;9.50;99.90;;;;;;5043658;28;20245;-33
2023/03/06 11:06:14;;;;;;;30.77;21.37;;;9.60;99.90;;;;;;5045972;28;20208;-39
2023/03/06 11:08:43;;;;;;;33.43;21.70;;;9.60;99.90;;;;;;5040540;28;20270;-33
2023/03/06 11:11:21;;;;;;;28.47;20.83;;;9.60;99.90;;;;;;5047272;28;20631;-33
2023/03/06 11:14:16;;;;;;;38.30;22.27;;;9.70;99.90;;;;;;5046894;28;20242;-33
2023/03/06 11:16:53;;;;;;;34.37;21.13;;;9.60;99.90;;;;;;5062390;28;20317;-32
2023/03/06 11:19:29;;;;;;;29.93;20.47;;;9.70;99.90;;;;;;5066853;28;20331;-32
2023/03/06 11:22:06;;;;;;;36.43;21.97;;;9.60;99.90;;;;;;5053761;28;20207;-32
2023/03/06 11:24:44;;;;;;;34.67;21.83;;;9.60;99.90;;;;;;5046397;28;20309;-33
2023/03/06 11:27:34;;;;;;;26.93;19.70;;;9.60;99.90;;;;;;5037246;28;20220;-32
2023/03/06 11:30:09;;;;;;;24.93;19.07;;;9.60;99.90;;;;;;5047312;28;20227;-32
2023/03/06 11:32:51;;;;;;;28.10;19.43;;;9.70;99.90;;;;;;5061578;28;20195;-32
2023/03/06 11:35:33;;;;;;;28.13;19.90;;;9.80;99.90;;;;;;5065351;28;20690;-33
2023/03/06 11:38:31;;;;;;;34.97;20.37;;;9.80;99.90;;;;;;5052251;28;20302;-32
2023/03/06 11:41:01;;;;;;;25.90;19.07;;;10.00;99.90;;;;;;5028185;28;20319;-32
2023/03/06 11:43:47;;;;;;;29.53;19.77;;;10.00;99.90;;;;;;5048632;28;20216;-33
2023/03/06 11:46:35;;;;;;;29.47;19.37;;;10.00;99.90;;;;;;5046990;28;20373;-33
2023/03/06 11:49:20;;;;;;;25.50;18.17;;;10.00;99.90;;;;;;5047283;28;20658;-32
2023/03/06 11:51:53;;;;;;;33.50;19.80;;;10.10;99.90;;;;;;5048350;28;20296;-32
2023/03/06 11:54:21;;;;;;;32.67;18.73;;;10.20;99.90;;;;;;5028382;28;20241;-32
2023/03/06 11:57:17;;;;;;;37.87;19.37;;;10.20;99.90;;;;;;5054653;28;20296;-32
2023/03/06 12:00:02;;;;;;;30.70;16.60;;;10.30;99.90;;;;;;5045270;28;20217;-32
2023/03/06 12:02:52;;;;;;;24.43;16.53;;;10.30;99.90;;;;;;5037601;28;20203;-32
2023/03/06 12:05:22;;;;;;;27.77;16.63;;;10.30;99.90;;;;;;5008380;28;20650;-33
2023/03/06 12:08:05;;;;;;;34.97;17.73;;;10.30;99.90;;;;;;5051147;28;20274;-33
2023/03/06 12:10:35;;;;;;;37.60;17.77;;;10.30;99.90;;;;;;5047047;28;20332;-33
2023/03/06 12:13:08;;;;;;;36.97;18.43;;;10.20;99.90;;;;;;5045656;28;20570;-33
2023/03/06 12:16:06;;;;;;;32.50;17.07;;;10.20;99.90;;;;;;5047030;28;20204;-33
2023/03/06 12:18:39;;;;;;;33.37;18.83;;;10.20;99.90;;;;;;5044361;28;20212;-33
2023/03/06 12:21:23;;;;;;;30.67;18.23;;;10.10;99.90;;;;;;5044476;28;20200;-34
2023/03/06 12:24:06;;;;;;;32.17;18.50;;;10.10;99.90;;;;;;5064164;28;20237;-33
2023/03/06 12:26:54;;;;;;;27.13;18.80;;;10.00;99.90;;;;;;5065300;28;20222;-33
2023/03/06 12:29:55;;;;;;;27.20;19.03;;;9.90;99.90;;;;;;5066076;28;20222;-33
2023/03/06 12:32:56;;;;;;;30.00;20.20;;;9.80;99.90;;;;;;5054802;28;20204;-33
2023/03/06 12:35:34;;;;;;;36.10;21.20;;;9.80;99.90;;;;;;5061490;28;20206;-33
2023/03/06 12:38:39;;;;;;;34.20;21.47;;;9.70;99.90;;;;;;5058860;28;20226;-33
2023/03/06 12:41:45;;;;;;;30.67;21.17;;;9.70;99.90;;;;;;5065409;28;20738;-33
2023/03/06 12:44:20;;;;;;;32.83;21.07;;;9.70;99.90;;;;;;5044034;28;20220;-33
2023/03/06 12:47:09;;;;;;;29.43;19.23;;;9.70;99.90;;;;;;5045934;28;20405;-33
2023/03/06 12:49:42;;;;;;;27.83;18.37;;;9.70;99.90;;;;;;5044756;28;20200;-34
2023/03/06 12:52:21;;;;;;;27.80;19.43;;;9.70;99.90;;;;;;5042650;28;20247;-33
2023/03/06 12:55:08;;;;;;;28.40;19.53;;;9.70;99.90;;;;;;5056990;28;20248;-33
2023/03/06 12:57:35;;;;;;;26.47;18.23;;;9.70;99.90;;;;;;5029376;28;20682;-32
2023/03/06 13:00:05;;;;;;;24.60;16.63;;;9.70;99.90;;;;;;5028956;28;20260;-33
2023/03/06 13:02:49;;;;;;;23.57;16.43;;;9.60;99.90;;;;;;5046565;28;20663;-33
2023/03/06 13:05:22;;;;;;;26.17;17.67;;;9.60;99.90;;;;;;5060452;28;20581;-33